sensor_id;sensor_type;location;lat;lon;timestamp;P1;durP1;ratioP1;P2;durP2;ratioP2
27794;SDS011;15176;50.844;4.412;2023-07-08T00:00:48;8.05;;;4.53;;
27794;SDS011;15176;50.844;4.412;2023-07-08T00:03:14;7.38;;;3.22;;
27794;SDS011;15176;50.844;4.412;2023-07-08T00:05:39;8.63;;;4.47;;
27794;SDS011;15176;50.844;4.412;2023-07-08T00:08:07;6.78;;;3.67;;
27794;SDS011;15176;50.844;4.412;2023-07-08T00:10:38;6.05;;;3.67;;
27794;SDS011;15176;50.844;4.412;2023-07-08T00:13:04;8.30;;;4.15;;
27794;SDS011;15176;50.844;4.412;2023-07-08T00:15:30;8.70;;;4.70;;
27794;SDS011;15176;50.844;4.412;2023-07-08T00:17:57;8.50;;;4.20;;
27794;SDS011;15176;50.844;4.412;2023-07-08T00:23:07;8.38;;;4.50;;
27794;SDS011;15176;50.844;4.412;2023-07-08T00:25:36;9.40;;;3.92;;
27794;SDS011;15176;50.844;4.412;2023-07-08T00:28:04;7.60;;;4.22;;
27794;SDS011;15176;50.844;4.412;2023-07-08T00:30:38;7.03;;;4.13;;
27794;SDS011;15176;50.844;4.412;2023-07-08T00:33:05;12.40;;;6.20;;
27794;SDS011;15176;50.844;4.412;2023-07-08T00:35:35;10.40;;;5.50;;
27794;SDS011;15176;50.844;4.412;2023-07-08T00:43:32;12.20;;;5.28;;
27794;SDS011;15176;50.844;4.412;2023-07-08T00:48:57;9.05;;;5.60;;
27794;SDS011;15176;50.844;4.412;2023-07-08T00:51:37;8.45;;;4.20;;
27794;SDS011;15176;50.844;4.412;2023-07-08T00:54:04;7.75;;;4.22;;
27794;SDS011;15176;50.844;4.412;2023-07-08T00:56:43;10.25;;;5.50;;
27794;SDS011;15176;50.844;4.412;2023-07-08T01:01:59;9.68;;;5.88;;
27794;SDS011;15176;50.844;4.412;2023-07-08T01:04:33;10.80;;;5.20;;
27794;SDS011;15176;50.844;4.412;2023-07-08T01:07:04;9.48;;;4.90;;
27794;SDS011;15176;50.844;4.412;2023-07-08T01:09:43;7.78;;;4.53;;
27794;SDS011;15176;50.844;4.412;2023-07-08T01:12:12;7.75;;;4.38;;
27794;SDS011;15176;50.844;4.412;2023-07-08T01:14:41;9.35;;;5.38;;
27794;SDS011;15176;50.844;4.412;2023-07-08T01:17:08;7.45;;;3.90;;
27794;SDS011;15176;50.844;4.412;2023-07-08T01:19:39;7.18;;;3.13;;
27794;SDS011;15176;50.844;4.412;2023-07-08T01:22:09;7.60;;;4.50;;
27794;SDS011;15176;50.844;4.412;2023-07-08T01:24:36;12.35;;;5.20;;
27794;SDS011;15176;50.844;4.412;2023-07-08T01:27:05;9.00;;;3.17;;
27794;SDS011;15176;50.844;4.412;2023-07-08T01:29:33;9.60;;;5.00;;
27794;SDS011;15176;50.844;4.412;2023-07-08T01:31:59;7.93;;;3.85;;
27794;SDS011;15176;50.844;4.412;2023-07-08T01:34:28;5.22;;;3.05;;
27794;SDS011;15176;50.844;4.412;2023-07-08T01:36:55;6.97;;;2.90;;
27794;SDS011;15176;50.844;4.412;2023-07-08T01:39:24;8.15;;;4.25;;
27794;SDS011;15176;50.844;4.412;2023-07-08T01:41:51;8.15;;;4.50;;
27794;SDS011;15176;50.844;4.412;2023-07-08T01:44:21;7.20;;;3.55;;
27794;SDS011;15176;50.844;4.412;2023-07-08T01:46:53;9.25;;;4.85;;
27794;SDS011;15176;50.844;4.412;2023-07-08T01:49:32;9.60;;;5.35;;
27794;SDS011;15176;50.844;4.412;2023-07-08T01:52:01;11.85;;;5.50;;
27794;SDS011;15176;50.844;4.412;2023-07-08T01:54:27;12.88;;;5.55;;
27794;SDS011;15176;50.844;4.412;2023-07-08T01:56:56;8.90;;;4.57;;
27794;SDS011;15176;50.844;4.412;2023-07-08T01:59:22;8.05;;;4.35;;
27794;SDS011;15176;50.844;4.412;2023-07-08T02:01:51;12.07;;;5.25;;
27794;SDS011;15176;50.844;4.412;2023-07-08T02:04:23;12.23;;;5.07;;
27794;SDS011;15176;50.844;4.412;2023-07-08T02:06:56;6.75;;;3.40;;
27794;SDS011;15176;50.844;4.412;2023-07-08T02:09:24;6.60;;;3.17;;
27794;SDS011;15176;50.844;4.412;2023-07-08T02:11:50;6.20;;;3.17;;
27794;SDS011;15176;50.844;4.412;2023-07-08T02:14:16;10.63;;;4.32;;
27794;SDS011;15176;50.844;4.412;2023-07-08T02:16:42;5.68;;;3.10;;
27794;SDS011;15176;50.844;4.412;2023-07-08T02:19:09;8.00;;;3.60;;
27794;SDS011;15176;50.844;4.412;2023-07-08T02:21:35;6.03;;;3.53;;
27794;SDS011;15176;50.844;4.412;2023-07-08T02:24:02;6.55;;;3.42;;
27794;SDS011;15176;50.844;4.412;2023-07-08T02:26:28;7.55;;;3.58;;
27794;SDS011;15176;50.844;4.412;2023-07-08T02:28:57;6.78;;;3.60;;
27794;SDS011;15176;50.844;4.412;2023-07-08T02:31:23;5.63;;;3.00;;
27794;SDS011;15176;50.844;4.412;2023-07-08T02:33:54;5.57;;;2.88;;
27794;SDS011;15176;50.844;4.412;2023-07-08T02:36:20;7.70;;;3.45;;
27794;SDS011;15176;50.844;4.412;2023-07-08T02:38:47;7.93;;;3.35;;
27794;SDS011;15176;50.844;4.412;2023-07-08T02:41:13;7.55;;;3.90;;
27794;SDS011;15176;50.844;4.412;2023-07-08T02:43:40;7.50;;;3.53;;
27794;SDS011;15176;50.844;4.412;2023-07-08T02:46:05;6.50;;;3.55;;
27794;SDS011;15176;50.844;4.412;2023-07-08T02:48:31;9.05;;;4.20;;
27794;SDS011;15176;50.844;4.412;2023-07-08T02:51:01;9.23;;;4.22;;
27794;SDS011;15176;50.844;4.412;2023-07-08T02:53:28;7.20;;;3.90;;
27794;SDS011;15176;50.844;4.412;2023-07-08T02:55:56;7.93;;;4.32;;
27794;SDS011;15176;50.844;4.412;2023-07-08T02:58:22;9.98;;;5.20;;
27794;SDS011;15176;50.844;4.412;2023-07-08T03:00:55;7.53;;;4.68;;
27794;SDS011;15176;50.844;4.412;2023-07-08T03:03:25;8.65;;;4.97;;
27794;SDS011;15176;50.844;4.412;2023-07-08T03:05:57;10.65;;;4.68;;
27794;SDS011;15176;50.844;4.412;2023-07-08T03:08:25;11.13;;;5.50;;
27794;SDS011;15176;50.844;4.412;2023-07-08T03:10:56;9.60;;;5.47;;
27794;SDS011;15176;50.844;4.412;2023-07-08T03:13:23;11.10;;;5.45;;
27794;SDS011;15176;50.844;4.412;2023-07-08T03:15:49;10.60;;;5.43;;
27794;SDS011;15176;50.844;4.412;2023-07-08T03:18:15;12.20;;;5.85;;
27794;SDS011;15176;50.844;4.412;2023-07-08T03:20:41;11.10;;;5.30;;
27794;SDS011;15176;50.844;4.412;2023-07-08T03:23:12;9.05;;;5.35;;
27794;SDS011;15176;50.844;4.412;2023-07-08T03:25:38;9.25;;;5.63;;
27794;SDS011;15176;50.844;4.412;2023-07-08T03:28:04;9.68;;;5.75;;
27794;SDS011;15176;50.844;4.412;2023-07-08T03:30:39;14.32;;;5.80;;
27794;SDS011;15176;50.844;4.412;2023-07-08T03:33:16;8.95;;;5.25;;
27794;SDS011;15176;50.844;4.412;2023-07-08T03:35:41;17.33;;;5.78;;
27794;SDS011;15176;50.844;4.412;2023-07-08T03:38:07;11.82;;;5.78;;
27794;SDS011;15176;50.844;4.412;2023-07-08T03:40:34;9.27;;;4.88;;
27794;SDS011;15176;50.844;4.412;2023-07-08T03:43:00;12.60;;;5.80;;
27794;SDS011;15176;50.844;4.412;2023-07-08T03:45:26;8.50;;;4.85;;
27794;SDS011;15176;50.844;4.412;2023-07-08T03:47:52;7.55;;;4.95;;
27794;SDS011;15176;50.844;4.412;2023-07-08T03:50:23;9.13;;;5.18;;
27794;SDS011;15176;50.844;4.412;2023-07-08T03:52:51;12.35;;;5.70;;
27794;SDS011;15176;50.844;4.412;2023-07-08T03:55:18;12.10;;;5.47;;
27794;SDS011;15176;50.844;4.412;2023-07-08T03:57:44;10.02;;;5.40;;
27794;SDS011;15176;50.844;4.412;2023-07-08T04:00:13;9.18;;;5.68;;
27794;SDS011;15176;50.844;4.412;2023-07-08T04:02:40;11.73;;;5.88;;
27794;SDS011;15176;50.844;4.412;2023-07-08T04:05:19;12.23;;;6.30;;
27794;SDS011;15176;50.844;4.412;2023-07-08T04:07:47;9.40;;;4.68;;
27794;SDS011;15176;50.844;4.412;2023-07-08T04:10:13;10.38;;;4.90;;
27794;SDS011;15176;50.844;4.412;2023-07-08T04:12:44;9.48;;;4.38;;
27794;SDS011;15176;50.844;4.412;2023-07-08T04:15:11;9.38;;;4.93;;
27794;SDS011;15176;50.844;4.412;2023-07-08T04:17:41;8.88;;;5.40;;
27794;SDS011;15176;50.844;4.412;2023-07-08T04:20:10;9.45;;;4.65;;
27794;SDS011;15176;50.844;4.412;2023-07-08T04:22:40;9.15;;;4.97;;
27794;SDS011;15176;50.844;4.412;2023-07-08T04:25:05;8.57;;;4.03;;
27794;SDS011;15176;50.844;4.412;2023-07-08T04:27:31;9.13;;;4.97;;
27794;SDS011;15176;50.844;4.412;2023-07-08T04:29:57;15.93;;;6.18;;
27794;SDS011;15176;50.844;4.412;2023-07-08T04:32:23;10.27;;;5.90;;
27794;SDS011;15176;50.844;4.412;2023-07-08T04:34:50;10.93;;;5.30;;
27794;SDS011;15176;50.844;4.412;2023-07-08T04:37:16;10.60;;;4.68;;
27794;SDS011;15176;50.844;4.412;2023-07-08T04:39:42;11.35;;;5.00;;
27794;SDS011;15176;50.844;4.412;2023-07-08T04:42:09;11.93;;;5.18;;
27794;SDS011;15176;50.844;4.412;2023-07-08T04:44:34;9.50;;;4.70;;
27794;SDS011;15176;50.844;4.412;2023-07-08T04:47:00;13.18;;;5.75;;
27794;SDS011;15176;50.844;4.412;2023-07-08T04:49:26;11.30;;;6.07;;
27794;SDS011;15176;50.844;4.412;2023-07-08T04:51:56;13.23;;;5.82;;
27794;SDS011;15176;50.844;4.412;2023-07-08T04:54:24;9.27;;;4.95;;
27794;SDS011;15176;50.844;4.412;2023-07-08T04:56:50;8.55;;;5.07;;
27794;SDS011;15176;50.844;4.412;2023-07-08T04:59:21;13.07;;;5.63;;
27794;SDS011;15176;50.844;4.412;2023-07-08T05:01:48;11.27;;;5.43;;
27794;SDS011;15176;50.844;4.412;2023-07-08T05:04:19;11.32;;;5.32;;
27794;SDS011;15176;50.844;4.412;2023-07-08T05:06:46;13.18;;;6.45;;
27794;SDS011;15176;50.844;4.412;2023-07-08T05:09:15;11.00;;;5.85;;
27794;SDS011;15176;50.844;4.412;2023-07-08T05:11:41;12.93;;;5.72;;
27794;SDS011;15176;50.844;4.412;2023-07-08T05:14:07;9.65;;;6.03;;
27794;SDS011;15176;50.844;4.412;2023-07-08T05:16:33;10.48;;;5.18;;
27794;SDS011;15176;50.844;4.412;2023-07-08T05:19:00;10.55;;;5.78;;
27794;SDS011;15176;50.844;4.412;2023-07-08T05:21:28;9.30;;;4.60;;
27794;SDS011;15176;50.844;4.412;2023-07-08T05:23:58;8.27;;;4.50;;
27794;SDS011;15176;50.844;4.412;2023-07-08T05:26:24;9.73;;;5.38;;
27794;SDS011;15176;50.844;4.412;2023-07-08T05:28:50;9.60;;;5.50;;
27794;SDS011;15176;50.844;4.412;2023-07-08T05:31:15;14.57;;;6.05;;
27794;SDS011;15176;50.844;4.412;2023-07-08T05:33:41;9.30;;;4.90;;
27794;SDS011;15176;50.844;4.412;2023-07-08T05:36:07;9.05;;;4.72;;
27794;SDS011;15176;50.844;4.412;2023-07-08T05:38:32;8.63;;;4.85;;
27794;SDS011;15176;50.844;4.412;2023-07-08T05:40:58;10.75;;;5.65;;
27794;SDS011;15176;50.844;4.412;2023-07-08T05:43:25;13.05;;;4.88;;
27794;SDS011;15176;50.844;4.412;2023-07-08T05:45:51;9.15;;;4.63;;
27794;SDS011;15176;50.844;4.412;2023-07-08T05:48:17;5.20;;;3.17;;
27794;SDS011;15176;50.844;4.412;2023-07-08T05:50:44;6.88;;;3.70;;
27794;SDS011;15176;50.844;4.412;2023-07-08T05:53:11;8.35;;;4.35;;
27794;SDS011;15176;50.844;4.412;2023-07-08T05:55:37;6.57;;;3.72;;
27794;SDS011;15176;50.844;4.412;2023-07-08T05:58:03;11.15;;;5.80;;
27794;SDS011;15176;50.844;4.412;2023-07-08T06:00:28;9.82;;;4.75;;
27794;SDS011;15176;50.844;4.412;2023-07-08T06:02:54;8.27;;;4.63;;
27794;SDS011;15176;50.844;4.412;2023-07-08T06:05:20;6.88;;;3.75;;
27794;SDS011;15176;50.844;4.412;2023-07-08T06:07:45;9.80;;;4.63;;
27794;SDS011;15176;50.844;4.412;2023-07-08T06:10:11;12.43;;;5.53;;
27794;SDS011;15176;50.844;4.412;2023-07-08T06:12:37;8.20;;;4.70;;
27794;SDS011;15176;50.844;4.412;2023-07-08T06:15:04;9.07;;;5.45;;
27794;SDS011;15176;50.844;4.412;2023-07-08T06:17:30;15.88;;;4.50;;
27794;SDS011;15176;50.844;4.412;2023-07-08T06:19:56;8.80;;;4.63;;
27794;SDS011;15176;50.844;4.412;2023-07-08T06:22:22;11.27;;;5.68;;
27794;SDS011;15176;50.844;4.412;2023-07-08T06:24:47;12.27;;;6.13;;
27794;SDS011;15176;50.844;4.412;2023-07-08T06:27:13;12.48;;;5.13;;
27794;SDS011;15176;50.844;4.412;2023-07-08T06:29:39;7.82;;;4.70;;
27794;SDS011;15176;50.844;4.412;2023-07-08T06:32:05;9.95;;;5.20;;
27794;SDS011;15176;50.844;4.412;2023-07-08T06:34:31;10.05;;;5.60;;
27794;SDS011;15176;50.844;4.412;2023-07-08T06:36:57;9.40;;;5.45;;
27794;SDS011;15176;50.844;4.412;2023-07-08T06:39:23;12.98;;;5.43;;
27794;SDS011;15176;50.844;4.412;2023-07-08T06:41:48;11.00;;;5.53;;
27794;SDS011;15176;50.844;4.412;2023-07-08T06:44:14;8.82;;;5.72;;
27794;SDS011;15176;50.844;4.412;2023-07-08T06:46:40;10.35;;;5.70;;
27794;SDS011;15176;50.844;4.412;2023-07-08T06:49:06;11.77;;;5.70;;
27794;SDS011;15176;50.844;4.412;2023-07-08T06:51:34;8.85;;;4.63;;
27794;SDS011;15176;50.844;4.412;2023-07-08T06:54:00;9.65;;;5.65;;
27794;SDS011;15176;50.844;4.412;2023-07-08T06:56:29;11.95;;;5.63;;
27794;SDS011;15176;50.844;4.412;2023-07-08T06:58:56;11.63;;;5.75;;
27794;SDS011;15176;50.844;4.412;2023-07-08T07:01:24;11.05;;;5.88;;
27794;SDS011;15176;50.844;4.412;2023-07-08T07:03:50;10.50;;;5.03;;
27794;SDS011;15176;50.844;4.412;2023-07-08T07:06:15;9.40;;;5.45;;
27794;SDS011;15176;50.844;4.412;2023-07-08T07:08:42;11.77;;;6.35;;
27794;SDS011;15176;50.844;4.412;2023-07-08T07:11:07;14.15;;;6.15;;
27794;SDS011;15176;50.844;4.412;2023-07-08T07:13:33;11.00;;;5.47;;
27794;SDS011;15176;50.844;4.412;2023-07-08T07:15:58;10.18;;;4.90;;
27794;SDS011;15176;50.844;4.412;2023-07-08T07:18:24;11.25;;;5.70;;
27794;SDS011;15176;50.844;4.412;2023-07-08T07:20:52;10.73;;;5.53;;
27794;SDS011;15176;50.844;4.412;2023-07-08T07:23:19;12.68;;;5.75;;
27794;SDS011;15176;50.844;4.412;2023-07-08T07:25:45;11.00;;;5.90;;
27794;SDS011;15176;50.844;4.412;2023-07-08T07:28:13;9.95;;;5.45;;
27794;SDS011;15176;50.844;4.412;2023-07-08T07:30:41;9.05;;;5.30;;
27794;SDS011;15176;50.844;4.412;2023-07-08T07:33:08;13.73;;;5.55;;
27794;SDS011;15176;50.844;4.412;2023-07-08T07:35:34;9.82;;;5.70;;
27794;SDS011;15176;50.844;4.412;2023-07-08T07:38:00;10.02;;;5.53;;
27794;SDS011;15176;50.844;4.412;2023-07-08T07:40:27;12.02;;;5.65;;
27794;SDS011;15176;50.844;4.412;2023-07-08T07:42:53;9.20;;;5.57;;
27794;SDS011;15176;50.844;4.412;2023-07-08T07:45:20;10.38;;;6.20;;
27794;SDS011;15176;50.844;4.412;2023-07-08T07:47:47;9.55;;;5.35;;
27794;SDS011;15176;50.844;4.412;2023-07-08T07:50:13;10.40;;;6.32;;
27794;SDS011;15176;50.844;4.412;2023-07-08T07:52:40;11.98;;;5.72;;
27794;SDS011;15176;50.844;4.412;2023-07-08T07:55:06;11.40;;;5.80;;
27794;SDS011;15176;50.844;4.412;2023-07-08T07:57:33;9.75;;;6.15;;
27794;SDS011;15176;50.844;4.412;2023-07-08T07:59:59;10.07;;;5.63;;
27794;SDS011;15176;50.844;4.412;2023-07-08T08:02:25;11.63;;;6.40;;
27794;SDS011;15176;50.844;4.412;2023-07-08T08:04:51;12.20;;;5.82;;
27794;SDS011;15176;50.844;4.412;2023-07-08T08:07:17;9.80;;;5.80;;
27794;SDS011;15176;50.844;4.412;2023-07-08T08:09:43;9.23;;;5.55;;
27794;SDS011;15176;50.844;4.412;2023-07-08T08:12:10;13.52;;;6.13;;
27794;SDS011;15176;50.844;4.412;2023-07-08T08:14:36;14.85;;;6.60;;
27794;SDS011;15176;50.844;4.412;2023-07-08T08:17:04;10.73;;;6.03;;
27794;SDS011;15176;50.844;4.412;2023-07-08T08:19:33;13.48;;;6.68;;
27794;SDS011;15176;50.844;4.412;2023-07-08T08:21:58;13.18;;;6.30;;
27794;SDS011;15176;50.844;4.412;2023-07-08T08:24:24;11.57;;;5.55;;
27794;SDS011;15176;50.844;4.412;2023-07-08T08:26:50;11.23;;;6.38;;
27794;SDS011;15176;50.844;4.412;2023-07-08T08:29:18;7.95;;;5.18;;
27794;SDS011;15176;50.844;4.412;2023-07-08T08:31:44;10.98;;;6.07;;
27794;SDS011;15176;50.844;4.412;2023-07-08T08:34:09;11.63;;;5.65;;
27794;SDS011;15176;50.844;4.412;2023-07-08T08:36:36;9.30;;;5.95;;
27794;SDS011;15176;50.844;4.412;2023-07-08T08:39:02;12.43;;;5.88;;
27794;SDS011;15176;50.844;4.412;2023-07-08T08:41:34;9.85;;;6.05;;
27794;SDS011;15176;50.844;4.412;2023-07-08T08:44:02;11.13;;;6.38;;
27794;SDS011;15176;50.844;4.412;2023-07-08T08:46:45;12.63;;;7.00;;
27794;SDS011;15176;50.844;4.412;2023-07-08T08:51:45;8.13;;;4.85;;
27794;SDS011;15176;50.844;4.412;2023-07-08T08:54:12;12.18;;;6.47;;
27794;SDS011;15176;50.844;4.412;2023-07-08T09:04:44;12.27;;;6.47;;
27794;SDS011;15176;50.844;4.412;2023-07-08T09:07:15;13.57;;;6.68;;
27794;SDS011;15176;50.844;4.412;2023-07-08T09:09:52;12.88;;;6.75;;
27794;SDS011;15176;50.844;4.412;2023-07-08T09:12:34;10.95;;;6.13;;
27794;SDS011;15176;50.844;4.412;2023-07-08T09:15:00;12.15;;;6.30;;
27794;SDS011;15176;50.844;4.412;2023-07-08T09:17:38;10.32;;;6.63;;
27794;SDS011;15176;50.844;4.412;2023-07-08T09:22:48;12.13;;;6.85;;
27794;SDS011;15176;50.844;4.412;2023-07-08T09:25:25;10.82;;;6.85;;
27794;SDS011;15176;50.844;4.412;2023-07-08T09:27:52;11.80;;;6.88;;
27794;SDS011;15176;50.844;4.412;2023-07-08T09:30:21;11.80;;;6.53;;
27794;SDS011;15176;50.844;4.412;2023-07-08T09:32:48;10.50;;;6.70;;
27794;SDS011;15176;50.844;4.412;2023-07-08T09:35:25;15.95;;;6.80;;
27794;SDS011;15176;50.844;4.412;2023-07-08T09:37:53;10.80;;;5.75;;
27794;SDS011;15176;50.844;4.412;2023-07-08T09:40:21;12.98;;;7.25;;
27794;SDS011;15176;50.844;4.412;2023-07-08T09:42:55;10.35;;;6.63;;
27794;SDS011;15176;50.844;4.412;2023-07-08T09:45:43;10.63;;;7.00;;
27794;SDS011;15176;50.844;4.412;2023-07-08T09:48:15;12.82;;;6.90;;
27794;SDS011;15176;50.844;4.412;2023-07-08T09:50:47;11.65;;;6.95;;
27794;SDS011;15176;50.844;4.412;2023-07-08T09:53:13;12.02;;;6.50;;
27794;SDS011;15176;50.844;4.412;2023-07-08T09:55:40;10.48;;;6.95;;
27794;SDS011;15176;50.844;4.412;2023-07-08T09:58:06;13.50;;;7.10;;
27794;SDS011;15176;50.844;4.412;2023-07-08T10:00:39;12.32;;;6.88;;
27794;SDS011;15176;50.844;4.412;2023-07-08T10:03:12;11.10;;;6.10;;
27794;SDS011;15176;50.844;4.412;2023-07-08T10:05:45;14.73;;;6.65;;
27794;SDS011;15176;50.844;4.412;2023-07-08T10:08:20;12.68;;;6.80;;
27794;SDS011;15176;50.844;4.412;2023-07-08T10:10:57;11.95;;;6.40;;
27794;SDS011;15176;50.844;4.412;2023-07-08T10:13:34;10.38;;;6.72;;
27794;SDS011;15176;50.844;4.412;2023-07-08T10:16:16;9.90;;;6.57;;
27794;SDS011;15176;50.844;4.412;2023-07-08T10:18:50;12.05;;;6.50;;
27794;SDS011;15176;50.844;4.412;2023-07-08T10:27:08;10.20;;;6.53;;
27794;SDS011;15176;50.844;4.412;2023-07-08T10:32:54;11.70;;;6.38;;
27794;SDS011;15176;50.844;4.412;2023-07-08T10:35:37;10.68;;;6.45;;
27794;SDS011;15176;50.844;4.412;2023-07-08T10:38:42;10.10;;;6.25;;
27794;SDS011;15176;50.844;4.412;2023-07-08T10:44:01;11.38;;;6.78;;
27794;SDS011;15176;50.844;4.412;2023-07-08T10:52:24;11.02;;;6.45;;
27794;SDS011;15176;50.844;4.412;2023-07-08T10:55:32;11.43;;;6.35;;
27794;SDS011;15176;50.844;4.412;2023-07-08T10:58:20;10.00;;;6.63;;
27794;SDS011;15176;50.844;4.412;2023-07-08T11:04:21;12.85;;;7.05;;
27794;SDS011;15176;50.844;4.412;2023-07-08T11:07:18;13.00;;;6.82;;
27794;SDS011;15176;50.844;4.412;2023-07-08T11:09:58;10.88;;;6.57;;
27794;SDS011;15176;50.844;4.412;2023-07-08T11:15:28;10.55;;;6.40;;
27794;SDS011;15176;50.844;4.412;2023-07-08T11:18:13;9.80;;;6.03;;
27794;SDS011;15176;50.844;4.412;2023-07-08T11:23:23;11.40;;;5.75;;
27794;SDS011;15176;50.844;4.412;2023-07-08T11:25:58;11.40;;;6.40;;
27794;SDS011;15176;50.844;4.412;2023-07-08T11:28:45;10.98;;;5.93;;
27794;SDS011;15176;50.844;4.412;2023-07-08T11:31:11;11.20;;;5.72;;
27794;SDS011;15176;50.844;4.412;2023-07-08T11:33:39;13.73;;;5.90;;
27794;SDS011;15176;50.844;4.412;2023-07-08T11:36:06;9.13;;;5.32;;
27794;SDS011;15176;50.844;4.412;2023-07-08T11:38:33;9.35;;;5.78;;
27794;SDS011;15176;50.844;4.412;2023-07-08T11:41:12;8.65;;;5.20;;
27794;SDS011;15176;50.844;4.412;2023-07-08T11:43:42;9.52;;;5.53;;
27794;SDS011;15176;50.844;4.412;2023-07-08T11:46:15;10.40;;;5.65;;
27794;SDS011;15176;50.844;4.412;2023-07-08T11:48:49;8.98;;;5.10;;
27794;SDS011;15176;50.844;4.412;2023-07-08T11:51:20;10.05;;;5.38;;
27794;SDS011;15176;50.844;4.412;2023-07-08T11:54:02;8.85;;;5.13;;
27794;SDS011;15176;50.844;4.412;2023-07-08T11:56:57;11.10;;;5.15;;
27794;SDS011;15176;50.844;4.412;2023-07-08T11:59:26;12.05;;;5.82;;
27794;SDS011;15176;50.844;4.412;2023-07-08T12:02:02;9.07;;;5.50;;
27794;SDS011;15176;50.844;4.412;2023-07-08T12:04:30;9.30;;;5.63;;
27794;SDS011;15176;50.844;4.412;2023-07-08T12:07:30;11.50;;;5.45;;
27794;SDS011;15176;50.844;4.412;2023-07-08T12:09:57;9.88;;;4.82;;
27794;SDS011;15176;50.844;4.412;2023-07-08T12:12:26;9.88;;;4.97;;
27794;SDS011;15176;50.844;4.412;2023-07-08T12:15:04;9.95;;;4.53;;
27794;SDS011;15176;50.844;4.412;2023-07-08T12:17:35;10.50;;;4.97;;
27794;SDS011;15176;50.844;4.412;2023-07-08T12:20:06;12.48;;;5.90;;
27794;SDS011;15176;50.844;4.412;2023-07-08T12:22:43;9.30;;;5.43;;
27794;SDS011;15176;50.844;4.412;2023-07-08T12:25:13;12.52;;;6.22;;
27794;SDS011;15176;50.844;4.412;2023-07-08T12:27:41;11.05;;;5.40;;
27794;SDS011;15176;50.844;4.412;2023-07-08T12:30:09;11.15;;;5.88;;
27794;SDS011;15176;50.844;4.412;2023-07-08T12:32:36;13.40;;;6.03;;
27794;SDS011;15176;50.844;4.412;2023-07-08T12:35:02;12.05;;;6.03;;
27794;SDS011;15176;50.844;4.412;2023-07-08T12:37:31;11.35;;;6.07;;
27794;SDS011;15176;50.844;4.412;2023-07-08T12:39:57;17.83;;;6.18;;
27794;SDS011;15176;50.844;4.412;2023-07-08T12:42:29;13.23;;;5.88;;
27794;SDS011;15176;50.844;4.412;2023-07-08T12:44:57;10.10;;;5.57;;
27794;SDS011;15176;50.844;4.412;2023-07-08T12:47:23;10.40;;;5.60;;
27794;SDS011;15176;50.844;4.412;2023-07-08T12:49:48;10.48;;;6.07;;
27794;SDS011;15176;50.844;4.412;2023-07-08T12:52:19;13.85;;;5.40;;
27794;SDS011;15176;50.844;4.412;2023-07-08T12:54:46;10.73;;;5.13;;
27794;SDS011;15176;50.844;4.412;2023-07-08T12:57:12;10.15;;;4.38;;
27794;SDS011;15176;50.844;4.412;2023-07-08T12:59:43;7.97;;;4.60;;
27794;SDS011;15176;50.844;4.412;2023-07-08T13:02:17;14.50;;;4.93;;
27794;SDS011;15176;50.844;4.412;2023-07-08T13:04:45;12.32;;;4.65;;
27794;SDS011;15176;50.844;4.412;2023-07-08T13:07:20;9.70;;;4.53;;
27794;SDS011;15176;50.844;4.412;2023-07-08T13:09:57;17.20;;;5.47;;
27794;SDS011;15176;50.844;4.412;2023-07-08T13:12:24;25.42;;;7.25;;
27794;SDS011;15176;50.844;4.412;2023-07-08T13:14:52;17.80;;;5.50;;
27794;SDS011;15176;50.844;4.412;2023-07-08T13:17:20;10.30;;;4.90;;
27794;SDS011;15176;50.844;4.412;2023-07-08T13:19:46;12.32;;;4.78;;
27794;SDS011;15176;50.844;4.412;2023-07-08T13:22:18;18.02;;;6.20;;
27794;SDS011;15176;50.844;4.412;2023-07-08T13:24:46;12.63;;;5.32;;
27794;SDS011;15176;50.844;4.412;2023-07-08T13:27:16;8.75;;;4.63;;
27794;SDS011;15176;50.844;4.412;2023-07-08T13:29:48;12.20;;;5.45;;
27794;SDS011;15176;50.844;4.412;2023-07-08T13:32:16;14.77;;;5.93;;
27794;SDS011;15176;50.844;4.412;2023-07-08T13:34:41;15.38;;;6.65;;
27794;SDS011;15176;50.844;4.412;2023-07-08T13:37:11;15.27;;;7.68;;
27794;SDS011;15176;50.844;4.412;2023-07-08T13:39:45;13.10;;;5.82;;
27794;SDS011;15176;50.844;4.412;2023-07-08T13:42:11;11.10;;;4.53;;
27794;SDS011;15176;50.844;4.412;2023-07-08T13:44:44;11.90;;;5.35;;
27794;SDS011;15176;50.844;4.412;2023-07-08T13:49:48;12.60;;;6.40;;
27794;SDS011;15176;50.844;4.412;2023-07-08T13:52:24;9.50;;;6.07;;
27794;SDS011;15176;50.844;4.412;2023-07-08T13:54:52;16.45;;;6.13;;
27794;SDS011;15176;50.844;4.412;2023-07-08T13:57:21;12.77;;;5.78;;
27794;SDS011;15176;50.844;4.412;2023-07-08T13:59:54;10.27;;;4.80;;
27794;SDS011;15176;50.844;4.412;2023-07-08T14:02:24;10.23;;;5.05;;
27794;SDS011;15176;50.844;4.412;2023-07-08T14:05:09;10.60;;;5.13;;
27794;SDS011;15176;50.844;4.412;2023-07-08T14:07:38;11.90;;;5.30;;
27794;SDS011;15176;50.844;4.412;2023-07-08T14:10:09;11.40;;;4.68;;
27794;SDS011;15176;50.844;4.412;2023-07-08T14:12:37;11.93;;;4.57;;
27794;SDS011;15176;50.844;4.412;2023-07-08T14:15:03;9.38;;;4.75;;
27794;SDS011;15176;50.844;4.412;2023-07-08T14:17:29;12.05;;;4.82;;
27794;SDS011;15176;50.844;4.412;2023-07-08T14:19:55;10.43;;;5.00;;
27794;SDS011;15176;50.844;4.412;2023-07-08T14:24:52;13.80;;;5.63;;
27794;SDS011;15176;50.844;4.412;2023-07-08T14:27:19;13.38;;;5.30;;
27794;SDS011;15176;50.844;4.412;2023-07-08T14:29:46;10.57;;;4.68;;
27794;SDS011;15176;50.844;4.412;2023-07-08T14:32:18;11.55;;;5.00;;
27794;SDS011;15176;50.844;4.412;2023-07-08T14:34:51;10.18;;;4.63;;
27794;SDS011;15176;50.844;4.412;2023-07-08T14:37:19;11.57;;;4.72;;
27794;SDS011;15176;50.844;4.412;2023-07-08T14:39:46;8.75;;;4.13;;
27794;SDS011;15176;50.844;4.412;2023-07-08T14:42:12;11.30;;;4.25;;
27794;SDS011;15176;50.844;4.412;2023-07-08T14:44:42;11.50;;;4.60;;
27794;SDS011;15176;50.844;4.412;2023-07-08T14:47:12;8.65;;;4.63;;
27794;SDS011;15176;50.844;4.412;2023-07-08T14:49:40;8.95;;;4.57;;
27794;SDS011;15176;50.844;4.412;2023-07-08T14:52:06;12.80;;;5.60;;
27794;SDS011;15176;50.844;4.412;2023-07-08T14:54:34;8.57;;;4.40;;
27794;SDS011;15176;50.844;4.412;2023-07-08T14:57:00;10.05;;;3.78;;
27794;SDS011;15176;50.844;4.412;2023-07-08T14:59:28;9.15;;;4.13;;
27794;SDS011;15176;50.844;4.412;2023-07-08T15:01:57;11.73;;;4.43;;
27794;SDS011;15176;50.844;4.412;2023-07-08T15:04:24;10.38;;;4.25;;
27794;SDS011;15176;50.844;4.412;2023-07-08T15:06:50;8.48;;;4.30;;
27794;SDS011;15176;50.844;4.412;2023-07-08T15:09:17;9.70;;;4.43;;
27794;SDS011;15176;50.844;4.412;2023-07-08T15:11:43;8.27;;;3.90;;
27794;SDS011;15176;50.844;4.412;2023-07-08T15:14:22;8.00;;;3.80;;
27794;SDS011;15176;50.844;4.412;2023-07-08T15:16:51;7.00;;;3.78;;
27794;SDS011;15176;50.844;4.412;2023-07-08T15:19:18;9.30;;;4.20;;
27794;SDS011;15176;50.844;4.412;2023-07-08T15:21:44;7.75;;;4.03;;
27794;SDS011;15176;50.844;4.412;2023-07-08T15:24:10;7.65;;;4.10;;
27794;SDS011;15176;50.844;4.412;2023-07-08T15:26:46;10.20;;;4.60;;
27794;SDS011;15176;50.844;4.412;2023-07-08T15:29:17;7.07;;;3.85;;
27794;SDS011;15176;50.844;4.412;2023-07-08T15:31:46;8.35;;;3.90;;
27794;SDS011;15176;50.844;4.412;2023-07-08T15:34:16;7.05;;;3.88;;
27794;SDS011;15176;50.844;4.412;2023-07-08T15:36:43;8.43;;;3.97;;
27794;SDS011;15176;50.844;4.412;2023-07-08T15:39:09;7.85;;;4.22;;
27794;SDS011;15176;50.844;4.412;2023-07-08T15:41:35;9.35;;;4.18;;
27794;SDS011;15176;50.844;4.412;2023-07-08T15:44:03;8.15;;;4.10;;
27794;SDS011;15176;50.844;4.412;2023-07-08T15:46:31;11.55;;;4.10;;
27794;SDS011;15176;50.844;4.412;2023-07-08T15:49:08;11.00;;;4.45;;
27794;SDS011;15176;50.844;4.412;2023-07-08T15:51:41;11.35;;;4.35;;